LIPR Airport Information

Runway Information
Runway 13 Length 9828 ft width 148 ft
Elevation 21 ft Threshold 1030 ft Heading 128
Runway 31 Length 9828 ft Width 148 ft
Elevation 39 ft Threshold 1006 ft Heading 308
Airport Frequencies
Type APP Name ROMAGNA AP Frequency 36.23 MHZ
Type APP Name ROMAGNA AP Frequency 118.15 MHZ
Type GCCD Name GND/CLNC D Frequency 121.6 MHZ
Type TWR Name TWR Frequency 119.1 MHZ
Airport Navaids
Type VORTAC Name Rimini Frequency 116200 KHZ
Type NDB Name Rimini Frequency 335 KHZ
Airport Weather Information & NOTAM
ADDS - METARS form results

(1006 UTC 17 October 2021)
Data provider http://aviationweather.gov/metar/data/
 
METAR text: LIPR 170950Z 31010KT CAVOK 17/08 Q1021
Conditions at: LIPR (RIMINI (CIV/IT-A, IT) observed 0950 UTC 17 October 2021
Temperature: 17.0°C (63°F)
Dewpoint: 8.0°C (46°F) [RH = 55%]
Pressure (altimeter): 30.15 inches Hg (1021.0 mb)
Winds: from the NW (310 degrees) at 12 MPH (10 knots; 5.1 m/s)
Visibility: 6 or more miles (10+ km)
Ceiling: ceiling and visibility are OK
Clouds: unknown
Weather: no significant weather observed at this time

METAR text: LIPR 170920Z 30010KT CAVOK 16/08 Q1021
Conditions at: LIPR (RIMINI (CIV/IT-A, IT) observed 0920 UTC 17 October 2021
Temperature: 16.0°C (61°F)
Dewpoint: 8.0°C (46°F) [RH = 59%]
Pressure (altimeter): 30.15 inches Hg (1021.0 mb)
Winds: from the WNW (300 degrees) at 12 MPH (10 knots; 5.1 m/s)
Visibility: 6 or more miles (10+ km)
Ceiling: ceiling and visibility are OK
Clouds: unknown
Weather: no significant weather observed at this time

Forecast for: LIPR (RIMINI (CIV/IT-A, IT)
Text: TAF LIPR 170500Z 1706/1806 29007KT CAVOK
Forecast period: 0600 to 1000 UTC 17 October 2021
Forecast type: FROM: standard forecast or significant change
Winds: from the WNW (290 degrees) at 8 MPH (7 knots; 3.6 m/s)
Visibility: 6 or more miles (10+ km)
Ceiling: unknown
Clouds: missing
Weather: NSW  (no significant weather)
Text: BECMG 1710/1712 36010KT
Forecast period: 1000 to 1500 UTC 17 October 2021
Forecast type: BECOMING: Conditions expected to become as follows by 1200 UTC 17 October 2021
Winds: from the N (360 degrees) at 12 MPH (10 knots; 5.1 m/s)
Visibility: 6 or more miles (10+ km)
Ceiling: unknown
Clouds: missing
Weather: NSW  (no significant weather)
Text: BECMG 1715/1717 26005KT
Forecast period: 1500 UTC 17 October 2021 to 0600 UTC 18 October 2021
Forecast type: BECOMING: Conditions expected to become as follows by 1700 UTC 17 October 2021
Winds: from the W (260 degrees) at 6 MPH (5 knots; 2.6 m/s)
Visibility: 6 or more miles (10+ km)
Ceiling: unknown
Clouds: missing
Weather: NSW  (no significant weather)